createdAt,value
2018-08-06T00:04:58.200Z,24.90
2018-08-06T00:10:02.936Z,24.90
2018-08-06T00:15:09.370Z,25.00
2018-08-06T00:20:14.819Z,25.00
2018-08-06T00:30:23.716Z,24.90
2018-08-06T00:35:28.418Z,24.80
2018-08-06T00:40:33.209Z,24.70
2018-08-06T00:45:37.875Z,24.70
2018-08-06T00:50:42.798Z,24.60
2018-08-06T00:55:47.625Z,24.50
2018-08-06T01:00:52.217Z,24.50
2018-08-06T01:05:58.121Z,24.40
2018-08-06T01:11:03.365Z,24.30
2018-08-06T01:16:08.189Z,24.30
2018-08-06T01:21:13.048Z,24.30
2018-08-06T01:26:17.787Z,24.20
2018-08-06T01:31:22.609Z,24.10
2018-08-06T01:36:27.339Z,24.10
2018-08-06T01:41:32.055Z,24.10
2018-08-06T01:46:37.583Z,24.00
2018-08-06T01:51:42.487Z,23.90
2018-08-06T01:56:47.432Z,23.90
2018-08-06T02:01:52.382Z,23.80
2018-08-06T02:06:57.310Z,23.70
2018-08-06T02:12:02.037Z,23.60
2018-08-06T02:17:06.781Z,23.60
2018-08-06T02:22:11.698Z,23.50
2018-08-06T02:27:16.312Z,23.40
2018-08-06T02:32:21.211Z,23.40
2018-08-06T02:37:25.791Z,23.40
2018-08-06T02:42:31.110Z,23.30
2018-08-06T02:47:36.018Z,23.20
2018-08-06T02:52:42.239Z,23.10
2018-08-06T02:57:46.888Z,23.00
2018-08-06T03:02:51.748Z,22.90
2018-08-06T03:07:56.471Z,22.80
2018-08-06T03:13:01.213Z,22.80
2018-08-06T03:18:06.170Z,22.60
2018-08-06T03:23:10.917Z,22.50
2018-08-06T03:28:15.751Z,22.40
2018-08-06T03:33:20.336Z,22.40
2018-08-06T03:43:29.926Z,22.30
2018-08-06T03:48:34.708Z,22.40
2018-08-06T03:53:39.753Z,22.40
2018-08-06T03:58:45.706Z,22.50
2018-08-06T04:03:50.748Z,22.40
2018-08-06T04:08:55.590Z,22.30
2018-08-06T04:14:06.858Z,22.20
2018-08-06T04:19:12.726Z,22.10
2018-08-06T04:24:18.036Z,21.80
2018-08-06T04:29:24.044Z,21.70
2018-08-06T04:34:29.900Z,21.60
2018-08-06T04:39:36.089Z,21.70
2018-08-06T04:44:41.025Z,21.90
2018-08-06T04:49:45.787Z,22.00
2018-08-06T04:54:52.371Z,22.10
2018-08-06T04:59:57.054Z,22.40
2018-08-06T05:05:02.056Z,22.60
2018-08-06T05:10:07.808Z,22.80
2018-08-06T05:15:12.718Z,22.70
2018-08-06T05:20:17.531Z,22.80
2018-08-06T05:25:22.503Z,22.90
2018-08-06T05:30:27.295Z,23.00
2018-08-06T05:35:32.044Z,23.30
2018-08-06T05:40:37.001Z,23.40
2018-08-06T05:45:42.014Z,23.80
2018-08-06T05:50:46.913Z,24.30
2018-08-06T05:55:52.153Z,24.20
2018-08-06T06:00:56.859Z,24.30
2018-08-06T06:06:01.717Z,24.80
2018-08-06T06:11:06.873Z,25.20
2018-08-06T06:16:11.897Z,25.20
2018-08-06T06:21:17.030Z,25.30
2018-08-06T06:26:21.790Z,25.30
2018-08-06T06:31:26.634Z,25.30
2018-08-06T06:36:31.349Z,25.40
2018-08-06T06:41:36.430Z,25.40
2018-08-06T06:46:41.236Z,25.50
2018-08-06T06:51:45.752Z,25.80
2018-08-06T06:56:51.108Z,25.90
2018-08-06T07:01:55.817Z,26.00
2018-08-06T07:07:00.798Z,25.90
2018-08-06T07:12:05.945Z,25.70
2018-08-06T07:18:13.671Z,26.00
2018-08-06T07:23:18.583Z,26.30
2018-08-06T07:28:23.308Z,26.30
2018-08-06T07:33:28.161Z,26.50
2018-08-06T07:38:33.346Z,26.30
2018-08-06T07:43:38.345Z,26.70
2018-08-06T07:48:43.067Z,26.80
2018-08-06T07:53:47.974Z,27.00
2018-08-06T07:58:53.416Z,27.40
2018-08-06T08:03:58.229Z,27.00
2018-08-06T08:09:03.178Z,26.90
2018-08-06T08:14:07.927Z,26.40
2018-08-06T08:19:13.027Z,26.40
2018-08-06T08:24:17.997Z,26.40
2018-08-06T08:29:23.489Z,26.90
2018-08-06T08:34:28.152Z,26.70
2018-08-06T08:39:33.043Z,26.90
2018-08-06T08:44:38.118Z,27.10
2018-08-06T08:49:42.772Z,26.80
2018-08-06T08:54:47.729Z,27.10
2018-08-06T08:59:52.691Z,26.80
2018-08-06T09:04:58.371Z,27.10
2018-08-06T09:10:03.324Z,27.10
2018-08-06T09:15:11.594Z,27.00
2018-08-06T09:20:16.524Z,27.20
2018-08-06T09:25:21.920Z,27.50
2018-08-06T09:30:26.603Z,27.90
2018-08-06T09:35:31.453Z,27.80
2018-08-06T09:40:36.858Z,27.60
2018-08-06T09:45:41.817Z,27.40
2018-08-06T09:50:46.643Z,27.80
2018-08-06T09:55:51.734Z,28.20
2018-08-06T10:01:03.525Z,28.20
2018-08-06T10:07:12.201Z,28.60
2018-08-06T10:12:16.997Z,28.80
2018-08-06T10:17:21.655Z,28.60
2018-08-06T10:22:26.410Z,28.40
2018-08-06T10:27:31.117Z,28.70
2018-08-06T10:32:37.029Z,29.00
2018-08-06T10:37:41.645Z,29.40
2018-08-06T10:42:46.644Z,29.40
2018-08-06T10:47:51.736Z,29.40
2018-08-06T10:52:56.294Z,29.80
2018-08-06T10:58:01.086Z,30.60
2018-08-06T11:03:06.635Z,30.00
2018-08-06T11:08:11.471Z,30.40
2018-08-06T11:13:16.318Z,31.20
2018-08-06T11:18:21.040Z,31.80
2018-08-06T11:23:25.783Z,31.50
2018-08-06T11:28:30.940Z,31.40
2018-08-06T11:33:35.847Z,32.00
2018-08-06T11:38:40.597Z,33.10
2018-08-06T11:43:46.154Z,33.00
2018-08-06T11:48:51.021Z,34.10
2018-08-06T11:53:55.823Z,34.70
2018-08-06T11:59:00.665Z,34.60
2018-08-06T12:04:05.619Z,35.30
2018-08-06T12:09:10.688Z,36.50
2018-08-06T12:14:16.414Z,36.30
2018-08-06T12:19:21.269Z,36.70
2018-08-06T12:24:26.459Z,37.10
2018-08-06T12:29:31.446Z,37.00
2018-08-06T12:34:36.163Z,37.00
2018-08-06T12:39:41.001Z,37.40
2018-08-06T12:44:46.307Z,38.50
2018-08-06T12:49:52.338Z,39.20
2018-08-06T12:54:57.616Z,39.50
2018-08-06T13:00:02.883Z,39.60
2018-08-06T13:05:07.837Z,39.50
2018-08-06T13:10:13.864Z,39.40
2018-08-06T13:15:18.760Z,39.70
2018-08-06T13:20:23.698Z,40.00
2018-08-06T13:25:29.500Z,40.90
2018-08-06T13:30:34.325Z,38.80
2018-08-06T13:35:39.217Z,38.20
2018-08-06T13:40:43.868Z,39.40
2018-08-06T13:45:48.693Z,39.50
2018-08-06T13:50:53.562Z,40.00
2018-08-06T13:55:58.418Z,40.10
2018-08-06T14:01:03.491Z,39.10
2018-08-06T14:06:08.285Z,39.50
2018-08-06T14:11:13.995Z,40.00
2018-08-06T14:16:18.725Z,39.20
2018-08-06T14:21:23.417Z,39.50
2018-08-06T14:26:29.122Z,39.70
2018-08-06T14:31:33.845Z,38.90
2018-08-06T14:36:38.623Z,39.00
2018-08-06T14:41:43.487Z,39.20
2018-08-06T14:46:48.347Z,38.10
2018-08-06T14:51:53.575Z,37.70
2018-08-06T14:56:59.046Z,38.80
2018-08-06T15:07:04.087Z,38.40
2018-08-06T15:12:09.013Z,39.40
2018-08-06T15:17:14.271Z,40.70
2018-08-06T15:22:19.269Z,40.20
2018-08-06T15:27:24.226Z,39.60
2018-08-06T15:32:29.073Z,39.30
2018-08-06T15:37:34.121Z,39.00
2018-08-06T15:42:39.382Z,38.70
2018-08-06T15:47:45.255Z,39.70
2018-08-06T15:52:50.050Z,39.60
2018-08-06T15:57:54.847Z,40.30
2018-08-06T16:03:00.464Z,39.70
2018-08-06T16:08:05.861Z,38.40
2018-08-06T16:13:10.741Z,37.60
2018-08-06T16:18:15.415Z,37.00
2018-08-06T16:23:20.809Z,36.50
2018-08-06T16:28:25.655Z,36.10
2018-08-06T16:33:30.581Z,36.00
2018-08-06T16:38:35.575Z,35.70
2018-08-06T16:43:40.501Z,35.40
2018-08-06T16:48:45.627Z,34.70
2018-08-06T16:53:50.697Z,34.30
2018-08-06T16:58:55.644Z,33.60
2018-08-06T17:04:04.289Z,33.10
2018-08-06T17:09:09.828Z,32.70
2018-08-06T17:14:14.883Z,32.40
2018-08-06T17:19:19.912Z,31.30
2018-08-06T17:24:24.932Z,30.90
2018-08-06T17:29:29.884Z,30.40
2018-08-06T17:34:34.931Z,29.90
2018-08-06T17:39:43.154Z,29.60
2018-08-06T17:44:48.214Z,29.20
2018-08-06T17:50:07.697Z,29.20
2018-08-06T17:55:12.771Z,29.10
2018-08-06T18:00:18.181Z,29.00
2018-08-06T18:05:24.456Z,29.00
2018-08-06T18:10:30.425Z,28.90
2018-08-06T18:15:35.952Z,28.80
2018-08-06T18:20:40.811Z,28.70
2018-08-06T18:25:45.736Z,28.40
2018-08-06T18:30:50.980Z,27.80
2018-08-06T18:35:55.887Z,27.60
2018-08-06T18:41:01.051Z,27.50
2018-08-06T18:46:06.187Z,27.30
2018-08-06T18:51:11.083Z,27.20
2018-08-06T18:56:15.970Z,27.10
2018-08-06T19:01:20.818Z,27.10
2018-08-06T19:06:25.525Z,27.30
2018-08-06T19:11:30.040Z,27.30
2018-08-06T19:16:34.849Z,27.20
2018-08-06T19:21:39.807Z,27.20
2018-08-06T19:26:44.795Z,26.90
2018-08-06T19:31:49.972Z,26.70
2018-08-06T19:36:59.877Z,26.40
2018-08-06T19:42:04.991Z,25.90
2018-08-06T19:47:09.814Z,25.80
2018-08-06T19:52:14.753Z,25.70
2018-08-06T19:57:20.055Z,25.40
2018-08-06T20:02:25.572Z,25.20
2018-08-06T20:07:30.576Z,24.90
2018-08-06T20:12:35.593Z,24.60
2018-08-06T20:23:19.023Z,24.60
2018-08-06T20:28:24.463Z,24.90
2018-08-06T20:33:29.396Z,24.90
2018-08-06T20:38:34.320Z,24.90
2018-08-06T20:43:39.530Z,24.80
2018-08-06T20:48:44.328Z,24.70
2018-08-06T20:53:49.196Z,24.80
2018-08-06T20:58:54.120Z,24.90
2018-08-06T21:03:58.881Z,25.00
2018-08-06T21:09:03.975Z,25.10
2018-08-06T21:14:09.624Z,24.80
2018-08-06T21:19:14.420Z,24.70
2018-08-06T21:24:19.250Z,25.10
2018-08-06T21:29:24.055Z,25.40
2018-08-06T21:34:28.945Z,25.30
2018-08-06T21:39:33.796Z,25.30
2018-08-06T21:44:38.625Z,25.60
2018-08-06T21:49:43.952Z,25.70
2018-08-06T21:54:48.897Z,25.60
2018-08-06T21:59:53.747Z,25.30
2018-08-06T22:04:59.083Z,25.10
2018-08-06T22:10:12.417Z,25.10
2018-08-06T22:15:17.250Z,25.10
2018-08-06T22:20:22.135Z,25.00
2018-08-06T22:25:27.090Z,24.90
2018-08-06T22:30:31.987Z,24.70
2018-08-06T22:35:36.739Z,24.30
2018-08-06T22:40:41.480Z,24.10
2018-08-06T22:45:46.183Z,24.20
2018-08-06T22:50:50.902Z,24.20
2018-08-06T22:56:07.593Z,24.30
2018-08-06T23:01:12.580Z,24.10
2018-08-06T23:06:17.523Z,23.70
2018-08-06T23:11:22.396Z,23.60
2018-08-06T23:16:27.196Z,23.50
2018-08-06T23:21:31.960Z,23.10
2018-08-06T23:26:36.710Z,22.90
2018-08-06T23:31:41.707Z,22.80
2018-08-06T23:36:46.440Z,22.70
2018-08-06T23:41:51.691Z,22.60
2018-08-06T23:46:56.431Z,22.60
2018-08-06T23:52:01.380Z,22.50
2018-08-06T23:57:06.534Z,22.50
